sensor_id;sensor_type;location;lat;lon;timestamp;P1;durP1;ratioP1;P2;durP2;ratioP2
8048;SDS011;20935;42.660;23.342;2023-03-01T00:00:02;6.27;;;4.77;;
8048;SDS011;20935;42.660;23.342;2023-03-01T00:02:49;5.53;;;4.43;;
8048;SDS011;20935;42.660;23.342;2023-03-01T00:05:35;5.47;;;4.83;;
8048;SDS011;20935;42.660;23.342;2023-03-01T00:08:21;7.43;;;5.43;;
8048;SDS011;20935;42.660;23.342;2023-03-01T00:11:10;5.30;;;4.80;;
8048;SDS011;20935;42.660;23.342;2023-03-01T00:13:58;5.73;;;5.13;;
8048;SDS011;20935;42.660;23.342;2023-03-01T00:16:45;4.50;;;4.10;;
8048;SDS011;20935;42.660;23.342;2023-03-01T00:19:31;4.93;;;4.37;;
8048;SDS011;20935;42.660;23.342;2023-03-01T00:22:18;5.37;;;4.80;;
8048;SDS011;20935;42.660;23.342;2023-03-01T00:25:03;4.60;;;4.10;;
8048;SDS011;20935;42.660;23.342;2023-03-01T00:27:49;4.70;;;4.20;;
8048;SDS011;20935;42.660;23.342;2023-03-01T00:30:34;4.83;;;4.30;;
8048;SDS011;20935;42.660;23.342;2023-03-01T00:33:20;4.23;;;3.87;;
8048;SDS011;20935;42.660;23.342;2023-03-01T00:36:06;4.47;;;4.07;;
8048;SDS011;20935;42.660;23.342;2023-03-01T00:38:54;3.90;;;3.50;;
8048;SDS011;20935;42.660;23.342;2023-03-01T00:41:39;4.90;;;4.40;;
8048;SDS011;20935;42.660;23.342;2023-03-01T00:44:25;4.13;;;3.83;;
8048;SDS011;20935;42.660;23.342;2023-03-01T00:47:12;4.67;;;3.90;;
8048;SDS011;20935;42.660;23.342;2023-03-01T00:49:57;3.97;;;3.67;;
8048;SDS011;20935;42.660;23.342;2023-03-01T00:52:43;4.40;;;3.63;;
8048;SDS011;20935;42.660;23.342;2023-03-01T00:55:29;3.90;;;3.50;;
8048;SDS011;20935;42.660;23.342;2023-03-01T00:58:15;4.13;;;3.73;;
8048;SDS011;20935;42.660;23.342;2023-03-01T01:01:01;4.20;;;3.80;;
8048;SDS011;20935;42.660;23.342;2023-03-01T01:04:01;4.47;;;3.90;;
8048;SDS011;20935;42.660;23.342;2023-03-01T01:06:49;3.60;;;3.30;;
8048;SDS011;20935;42.660;23.342;2023-03-01T01:09:34;3.93;;;3.53;;
8048;SDS011;20935;42.660;23.342;2023-03-01T01:12:21;3.60;;;3.30;;
8048;SDS011;20935;42.660;23.342;2023-03-01T01:15:07;3.87;;;3.50;;
8048;SDS011;20935;42.660;23.342;2023-03-01T01:17:56;3.23;;;2.93;;
8048;SDS011;20935;42.660;23.342;2023-03-01T01:20:41;3.30;;;3.03;;
8048;SDS011;20935;42.660;23.342;2023-03-01T01:23:27;3.43;;;3.13;;
8048;SDS011;20935;42.660;23.342;2023-03-01T01:26:16;4.03;;;3.37;;
8048;SDS011;20935;42.660;23.342;2023-03-01T01:29:04;2.80;;;2.50;;
8048;SDS011;20935;42.660;23.342;2023-03-01T01:31:49;3.43;;;3.13;;
8048;SDS011;20935;42.660;23.342;2023-03-01T01:34:35;2.73;;;2.47;;
8048;SDS011;20935;42.660;23.342;2023-03-01T01:37:21;2.90;;;2.70;;
8048;SDS011;20935;42.660;23.342;2023-03-01T01:40:06;4.43;;;2.97;;
8048;SDS011;20935;42.660;23.342;2023-03-01T01:42:54;3.03;;;2.80;;
8048;SDS011;20935;42.660;23.342;2023-03-01T01:45:41;2.63;;;2.43;;
8048;SDS011;20935;42.660;23.342;2023-03-01T01:48:28;2.63;;;2.43;;
8048;SDS011;20935;42.660;23.342;2023-03-01T01:51:25;2.87;;;2.67;;
8048;SDS011;20935;42.660;23.342;2023-03-01T01:54:14;3.03;;;2.73;;
8048;SDS011;20935;42.660;23.342;2023-03-01T01:57:06;2.60;;;2.40;;
8048;SDS011;20935;42.660;23.342;2023-03-01T01:59:57;2.83;;;2.63;;
8048;SDS011;20935;42.660;23.342;2023-03-01T02:02:47;2.90;;;2.63;;
8048;SDS011;20935;42.660;23.342;2023-03-01T02:05:37;2.70;;;2.50;;
8048;SDS011;20935;42.660;23.342;2023-03-01T02:08:27;2.93;;;2.73;;
8048;SDS011;20935;42.660;23.342;2023-03-01T02:11:15;2.80;;;2.60;;
8048;SDS011;20935;42.660;23.342;2023-03-01T02:14:02;2.80;;;2.60;;
8048;SDS011;20935;42.660;23.342;2023-03-01T02:16:47;2.90;;;2.70;;
8048;SDS011;20935;42.660;23.342;2023-03-01T02:19:39;3.10;;;2.90;;
8048;SDS011;20935;42.660;23.342;2023-03-01T02:22:32;3.20;;;2.90;;
8048;SDS011;20935;42.660;23.342;2023-03-01T02:25:24;3.00;;;2.80;;
8048;SDS011;20935;42.660;23.342;2023-03-01T02:28:25;3.20;;;3.00;;
8048;SDS011;20935;42.660;23.342;2023-03-01T02:31:14;3.07;;;2.60;;
8048;SDS011;20935;42.660;23.342;2023-03-01T02:34:21;2.77;;;2.57;;
8048;SDS011;20935;42.660;23.342;2023-03-01T02:37:13;3.03;;;2.83;;
8048;SDS011;20935;42.660;23.342;2023-03-01T02:40:05;2.90;;;2.70;;
8048;SDS011;20935;42.660;23.342;2023-03-01T02:42:55;3.73;;;2.70;;
8048;SDS011;20935;42.660;23.342;2023-03-01T02:45:47;2.93;;;2.73;;
8048;SDS011;20935;42.660;23.342;2023-03-01T02:48:40;3.30;;;3.10;;
8048;SDS011;20935;42.660;23.342;2023-03-01T02:51:34;2.90;;;2.70;;
8048;SDS011;20935;42.660;23.342;2023-03-01T02:54:30;3.27;;;3.07;;
8048;SDS011;20935;42.660;23.342;2023-03-01T02:57:20;4.03;;;3.37;;
8048;SDS011;20935;42.660;23.342;2023-03-01T03:00:09;3.60;;;3.30;;
8048;SDS011;20935;42.660;23.342;2023-03-01T03:03:04;3.93;;;3.63;;
8048;SDS011;20935;42.660;23.342;2023-03-01T03:05:49;3.80;;;3.50;;
8048;SDS011;20935;42.660;23.342;2023-03-01T03:08:35;3.97;;;3.53;;
8048;SDS011;20935;42.660;23.342;2023-03-01T03:11:20;3.90;;;3.50;;
8048;SDS011;20935;42.660;23.342;2023-03-01T03:14:06;3.83;;;3.53;;
8048;SDS011;20935;42.660;23.342;2023-03-01T03:16:56;4.37;;;3.97;;
8048;SDS011;20935;42.660;23.342;2023-03-01T03:19:42;4.57;;;4.10;;
8048;SDS011;20935;42.660;23.342;2023-03-01T03:22:29;4.57;;;4.17;;
8048;SDS011;20935;42.660;23.342;2023-03-01T03:25:15;4.47;;;4.07;;
8048;SDS011;20935;42.660;23.342;2023-03-01T03:28:01;4.63;;;4.10;;
8048;SDS011;20935;42.660;23.342;2023-03-01T03:30:53;4.60;;;4.20;;
8048;SDS011;20935;42.660;23.342;2023-03-01T03:33:38;4.87;;;4.47;;
8048;SDS011;20935;42.660;23.342;2023-03-01T03:36:25;4.20;;;3.80;;
8048;SDS011;20935;42.660;23.342;2023-03-01T03:39:11;4.77;;;4.27;;
8048;SDS011;20935;42.660;23.342;2023-03-01T03:41:56;4.40;;;4.00;;
8048;SDS011;20935;42.660;23.342;2023-03-01T03:44:42;3.83;;;3.40;;
8048;SDS011;20935;42.660;23.342;2023-03-01T03:47:27;4.37;;;3.97;;
8048;SDS011;20935;42.660;23.342;2023-03-01T03:50:13;3.43;;;3.13;;
8048;SDS011;20935;42.660;23.342;2023-03-01T03:53:02;3.27;;;3.00;;
8048;SDS011;20935;42.660;23.342;2023-03-01T03:55:49;4.03;;;3.73;;
8048;SDS011;20935;42.660;23.342;2023-03-01T04:01:57;3.50;;;3.20;;
8048;SDS011;20935;42.660;23.342;2023-03-01T04:04:43;3.50;;;3.13;;
8048;SDS011;20935;42.660;23.342;2023-03-01T04:07:28;3.27;;;3.07;;
8048;SDS011;20935;42.660;23.342;2023-03-01T04:10:16;3.77;;;3.47;;
8048;SDS011;20935;42.660;23.342;2023-03-01T04:13:02;3.90;;;3.50;;
8048;SDS011;20935;42.660;23.342;2023-03-01T04:15:48;4.07;;;3.67;;
8048;SDS011;20935;42.660;23.342;2023-03-01T04:18:34;3.40;;;3.10;;
8048;SDS011;20935;42.660;23.342;2023-03-01T04:21:20;3.80;;;3.23;;
8048;SDS011;20935;42.660;23.342;2023-03-01T04:24:05;3.47;;;3.17;;
8048;SDS011;20935;42.660;23.342;2023-03-01T04:26:53;3.97;;;2.90;;
8048;SDS011;20935;42.660;23.342;2023-03-01T04:29:39;3.70;;;3.40;;
8048;SDS011;20935;42.660;23.342;2023-03-01T04:32:24;3.70;;;3.30;;
8048;SDS011;20935;42.660;23.342;2023-03-01T04:35:10;4.17;;;3.87;;
8048;SDS011;20935;42.660;23.342;2023-03-01T04:37:55;4.03;;;3.57;;
8048;SDS011;20935;42.660;23.342;2023-03-01T04:40:41;3.57;;;3.27;;
8048;SDS011;20935;42.660;23.342;2023-03-01T04:43:28;4.20;;;3.77;;
8048;SDS011;20935;42.660;23.342;2023-03-01T04:46:14;3.77;;;3.47;;
8048;SDS011;20935;42.660;23.342;2023-03-01T04:49:00;5.53;;;3.90;;
8048;SDS011;20935;42.660;23.342;2023-03-01T04:51:46;3.87;;;3.57;;
8048;SDS011;20935;42.660;23.342;2023-03-01T04:54:31;4.33;;;3.93;;
8048;SDS011;20935;42.660;23.342;2023-03-01T04:57:18;4.40;;;3.90;;
8048;SDS011;20935;42.660;23.342;2023-03-01T05:00:06;3.73;;;3.43;;
8048;SDS011;20935;42.660;23.342;2023-03-01T05:03:03;3.47;;;3.17;;
8048;SDS011;20935;42.660;23.342;2023-03-01T05:05:49;3.80;;;3.20;;
8048;SDS011;20935;42.660;23.342;2023-03-01T05:08:36;3.90;;;3.50;;
8048;SDS011;20935;42.660;23.342;2023-03-01T05:11:22;3.20;;;2.90;;
8048;SDS011;20935;42.660;23.342;2023-03-01T05:14:08;3.73;;;3.43;;
8048;SDS011;20935;42.660;23.342;2023-03-01T05:16:55;6.47;;;3.40;;
8048;SDS011;20935;42.660;23.342;2023-03-01T05:19:47;4.13;;;3.47;;
8048;SDS011;20935;42.660;23.342;2023-03-01T05:22:33;3.77;;;3.43;;
8048;SDS011;20935;42.660;23.342;2023-03-01T05:25:18;3.90;;;3.50;;
8048;SDS011;20935;42.660;23.342;2023-03-01T05:28:05;5.30;;;3.67;;
8048;SDS011;20935;42.660;23.342;2023-03-01T05:30:51;3.50;;;3.20;;
8048;SDS011;20935;42.660;23.342;2023-03-01T05:33:38;4.37;;;3.97;;
8048;SDS011;20935;42.660;23.342;2023-03-01T05:36:25;4.13;;;3.73;;
8048;SDS011;20935;42.660;23.342;2023-03-01T05:39:10;4.13;;;3.10;;
8048;SDS011;20935;42.660;23.342;2023-03-01T05:41:56;3.90;;;3.50;;
8048;SDS011;20935;42.660;23.342;2023-03-01T05:44:46;3.80;;;3.03;;
8048;SDS011;20935;42.660;23.342;2023-03-01T05:47:31;2.90;;;2.70;;
8048;SDS011;20935;42.660;23.342;2023-03-01T05:50:18;3.23;;;2.93;;
8048;SDS011;20935;42.660;23.342;2023-03-01T05:53:06;2.97;;;2.67;;
8048;SDS011;20935;42.660;23.342;2023-03-01T05:55:52;3.17;;;2.87;;
8048;SDS011;20935;42.660;23.342;2023-03-01T05:58:38;3.20;;;2.90;;
8048;SDS011;20935;42.660;23.342;2023-03-01T06:01:23;3.37;;;3.07;;
8048;SDS011;20935;42.660;23.342;2023-03-01T06:04:09;3.90;;;2.40;;
8048;SDS011;20935;42.660;23.342;2023-03-01T06:06:55;3.27;;;2.97;;
8048;SDS011;20935;42.660;23.342;2023-03-01T06:09:41;3.80;;;3.00;;
8048;SDS011;20935;42.660;23.342;2023-03-01T06:12:29;3.17;;;2.87;;
8048;SDS011;20935;42.660;23.342;2023-03-01T06:15:16;3.47;;;3.17;;
8048;SDS011;20935;42.660;23.342;2023-03-01T06:18:01;3.60;;;3.30;;
8048;SDS011;20935;42.660;23.342;2023-03-01T06:20:52;3.87;;;3.43;;
8048;SDS011;20935;42.660;23.342;2023-03-01T06:23:39;3.57;;;2.93;;
8048;SDS011;20935;42.660;23.342;2023-03-01T06:26:25;3.23;;;2.93;;
8048;SDS011;20935;42.660;23.342;2023-03-01T06:29:10;3.70;;;3.30;;
8048;SDS011;20935;42.660;23.342;2023-03-01T06:31:56;4.50;;;3.53;;
8048;SDS011;20935;42.660;23.342;2023-03-01T06:34:41;3.37;;;3.03;;
8048;SDS011;20935;42.660;23.342;2023-03-01T06:37:27;4.83;;;3.33;;
8048;SDS011;20935;42.660;23.342;2023-03-01T06:40:14;3.73;;;3.23;;
8048;SDS011;20935;42.660;23.342;2023-03-01T06:43:00;3.80;;;3.40;;
8048;SDS011;20935;42.660;23.342;2023-03-01T06:45:46;4.77;;;3.83;;
8048;SDS011;20935;42.660;23.342;2023-03-01T06:48:34;3.73;;;3.37;;
8048;SDS011;20935;42.660;23.342;2023-03-01T06:51:20;5.53;;;4.43;;
8048;SDS011;20935;42.660;23.342;2023-03-01T06:54:05;7.20;;;4.23;;
8048;SDS011;20935;42.660;23.342;2023-03-01T06:56:52;3.43;;;3.13;;
8048;SDS011;20935;42.660;23.342;2023-03-01T06:59:38;3.87;;;3.43;;
8048;SDS011;20935;42.660;23.342;2023-03-01T07:02:23;4.27;;;2.80;;
8048;SDS011;20935;42.660;23.342;2023-03-01T07:05:11;4.30;;;3.27;;
8048;SDS011;20935;42.660;23.342;2023-03-01T07:07:56;3.67;;;3.13;;
8048;SDS011;20935;42.660;23.342;2023-03-01T07:10:42;5.10;;;3.10;;
8048;SDS011;20935;42.660;23.342;2023-03-01T07:13:29;5.00;;;3.73;;
8048;SDS011;20935;42.660;23.342;2023-03-01T07:16:15;7.63;;;3.60;;
8048;SDS011;20935;42.660;23.342;2023-03-01T07:19:01;4.27;;;3.23;;
8048;SDS011;20935;42.660;23.342;2023-03-01T07:21:46;5.07;;;3.30;;
8048;SDS011;20935;42.660;23.342;2023-03-01T07:24:32;5.33;;;3.30;;
8048;SDS011;20935;42.660;23.342;2023-03-01T07:27:17;4.43;;;3.43;;
8048;SDS011;20935;42.660;23.342;2023-03-01T07:30:05;3.27;;;2.97;;
8048;SDS011;20935;42.660;23.342;2023-03-01T07:32:51;4.87;;;2.73;;
8048;SDS011;20935;42.660;23.342;2023-03-01T07:35:37;4.83;;;3.17;;
8048;SDS011;20935;42.660;23.342;2023-03-01T07:38:22;3.67;;;2.90;;
8048;SDS011;20935;42.660;23.342;2023-03-01T07:41:08;5.97;;;2.93;;
8048;SDS011;20935;42.660;23.342;2023-03-01T07:43:53;4.07;;;3.10;;
8048;SDS011;20935;42.660;23.342;2023-03-01T07:46:40;6.13;;;3.23;;
8048;SDS011;20935;42.660;23.342;2023-03-01T07:49:25;6.07;;;3.77;;
8048;SDS011;20935;42.660;23.342;2023-03-01T07:52:11;6.53;;;3.23;;
8048;SDS011;20935;42.660;23.342;2023-03-01T07:54:57;4.13;;;3.30;;
8048;SDS011;20935;42.660;23.342;2023-03-01T07:57:42;6.70;;;3.63;;
8048;SDS011;20935;42.660;23.342;2023-03-01T08:00:28;6.97;;;3.63;;
8048;SDS011;20935;42.660;23.342;2023-03-01T08:03:14;9.83;;;3.53;;
8048;SDS011;20935;42.660;23.342;2023-03-01T08:06:00;3.90;;;2.97;;
8048;SDS011;20935;42.660;23.342;2023-03-01T08:08:45;6.27;;;3.57;;
8048;SDS011;20935;42.660;23.342;2023-03-01T08:11:31;4.33;;;2.90;;
8048;SDS011;20935;42.660;23.342;2023-03-01T08:14:17;4.43;;;3.03;;
8048;SDS011;20935;42.660;23.342;2023-03-01T08:17:02;4.07;;;3.40;;
8048;SDS011;20935;42.660;23.342;2023-03-01T08:19:49;3.60;;;2.90;;
8048;SDS011;20935;42.660;23.342;2023-03-01T08:22:34;3.63;;;3.33;;
8048;SDS011;20935;42.660;23.342;2023-03-01T08:25:19;5.27;;;3.83;;
8048;SDS011;20935;42.660;23.342;2023-03-01T08:28:08;3.70;;;3.30;;
8048;SDS011;20935;42.660;23.342;2023-03-01T08:30:53;3.70;;;3.37;;
8048;SDS011;20935;42.660;23.342;2023-03-01T08:33:39;5.50;;;3.30;;
8048;SDS011;20935;42.660;23.342;2023-03-01T08:36:27;4.60;;;4.13;;
8048;SDS011;20935;42.660;23.342;2023-03-01T08:39:14;4.47;;;4.07;;
8048;SDS011;20935;42.660;23.342;2023-03-01T08:42:02;4.67;;;3.60;;
8048;SDS011;20935;42.660;23.342;2023-03-01T08:44:47;3.80;;;3.50;;
8048;SDS011;20935;42.660;23.342;2023-03-01T08:47:32;3.50;;;3.03;;
8048;SDS011;20935;42.660;23.342;2023-03-01T08:50:18;4.03;;;3.20;;
8048;SDS011;20935;42.660;23.342;2023-03-01T08:53:05;3.43;;;3.13;;
8048;SDS011;20935;42.660;23.342;2023-03-01T08:55:50;3.00;;;2.80;;
8048;SDS011;20935;42.660;23.342;2023-03-01T08:58:36;3.77;;;3.37;;
8048;SDS011;20935;42.660;23.342;2023-03-01T09:01:24;7.90;;;3.70;;
8048;SDS011;20935;42.660;23.342;2023-03-01T09:04:10;4.90;;;3.83;;
8048;SDS011;20935;42.660;23.342;2023-03-01T09:06:56;6.43;;;3.23;;
8048;SDS011;20935;42.660;23.342;2023-03-01T09:09:43;5.23;;;3.20;;
8048;SDS011;20935;42.660;23.342;2023-03-01T09:12:28;4.33;;;3.93;;
8048;SDS011;20935;42.660;23.342;2023-03-01T09:15:14;4.27;;;3.87;;
8048;SDS011;20935;42.660;23.342;2023-03-01T09:17:59;4.00;;;3.60;;
8048;SDS011;20935;42.660;23.342;2023-03-01T09:20:44;3.77;;;2.97;;
8048;SDS011;20935;42.660;23.342;2023-03-01T09:23:30;3.67;;;3.00;;
8048;SDS011;20935;42.660;23.342;2023-03-01T09:26:17;3.13;;;2.93;;
8048;SDS011;20935;42.660;23.342;2023-03-01T09:29:05;3.57;;;3.03;;
8048;SDS011;20935;42.660;23.342;2023-03-01T09:31:53;3.40;;;2.90;;
8048;SDS011;20935;42.660;23.342;2023-03-01T09:34:39;2.83;;;2.63;;
8048;SDS011;20935;42.660;23.342;2023-03-01T09:37:39;3.53;;;3.27;;
8048;SDS011;20935;42.660;23.342;2023-03-01T09:40:29;3.07;;;2.73;;
8048;SDS011;20935;42.660;23.342;2023-03-01T09:43:18;2.80;;;2.60;;
8048;SDS011;20935;42.660;23.342;2023-03-01T09:46:10;2.73;;;2.53;;
8048;SDS011;20935;42.660;23.342;2023-03-01T09:49:01;2.77;;;2.53;;
8048;SDS011;20935;42.660;23.342;2023-03-01T09:51:55;2.33;;;2.13;;
8048;SDS011;20935;42.660;23.342;2023-03-01T09:54:43;2.60;;;2.40;;
8048;SDS011;20935;42.660;23.342;2023-03-01T09:57:30;2.80;;;2.60;;
8048;SDS011;20935;42.660;23.342;2023-03-01T10:00:26;2.83;;;2.43;;
8048;SDS011;20935;42.660;23.342;2023-03-01T10:03:20;3.10;;;2.30;;
8048;SDS011;20935;42.660;23.342;2023-03-01T10:06:11;3.20;;;2.83;;
8048;SDS011;20935;42.660;23.342;2023-03-01T10:09:04;3.37;;;2.90;;
8048;SDS011;20935;42.660;23.342;2023-03-01T10:11:55;2.20;;;2.00;;
8048;SDS011;20935;42.660;23.342;2023-03-01T10:14:43;2.97;;;2.67;;
8048;SDS011;20935;42.660;23.342;2023-03-01T10:17:38;3.03;;;2.77;;
8048;SDS011;20935;42.660;23.342;2023-03-01T10:20:29;2.93;;;2.73;;
8048;SDS011;20935;42.660;23.342;2023-03-01T10:23:28;2.97;;;2.73;;
8048;SDS011;20935;42.660;23.342;2023-03-01T10:26:20;3.00;;;2.33;;
8048;SDS011;20935;42.660;23.342;2023-03-01T10:29:25;2.90;;;2.70;;
8048;SDS011;20935;42.660;23.342;2023-03-01T10:32:15;2.97;;;2.67;;
8048;SDS011;20935;42.660;23.342;2023-03-01T10:35:14;3.20;;;2.90;;
8048;SDS011;20935;42.660;23.342;2023-03-01T10:38:05;2.87;;;2.67;;
8048;SDS011;20935;42.660;23.342;2023-03-01T10:40:53;3.10;;;2.80;;
8048;SDS011;20935;42.660;23.342;2023-03-01T10:43:43;2.73;;;2.40;;
8048;SDS011;20935;42.660;23.342;2023-03-01T10:46:31;3.60;;;3.07;;
8048;SDS011;20935;42.660;23.342;2023-03-01T10:49:18;3.40;;;3.10;;
8048;SDS011;20935;42.660;23.342;2023-03-01T10:52:16;4.43;;;3.50;;
8048;SDS011;20935;42.660;23.342;2023-03-01T10:55:15;3.93;;;3.50;;
8048;SDS011;20935;42.660;23.342;2023-03-01T10:58:16;3.70;;;3.30;;
8048;SDS011;20935;42.660;23.342;2023-03-01T11:01:04;3.43;;;3.17;;
8048;SDS011;20935;42.660;23.342;2023-03-01T11:04:03;3.87;;;3.47;;
8048;SDS011;20935;42.660;23.342;2023-03-01T11:06:57;9.50;;;3.87;;
8048;SDS011;20935;42.660;23.342;2023-03-01T11:09:45;3.67;;;3.37;;
8048;SDS011;20935;42.660;23.342;2023-03-01T11:12:31;3.57;;;3.27;;
8048;SDS011;20935;42.660;23.342;2023-03-01T11:15:20;3.60;;;3.30;;
8048;SDS011;20935;42.660;23.342;2023-03-01T11:18:18;7.93;;;3.50;;
8048;SDS011;20935;42.660;23.342;2023-03-01T11:21:05;3.83;;;3.17;;
8048;SDS011;20935;42.660;23.342;2023-03-01T11:23:53;3.23;;;3.00;;
8048;SDS011;20935;42.660;23.342;2023-03-01T11:26:41;3.30;;;3.10;;
8048;SDS011;20935;42.660;23.342;2023-03-01T11:29:30;3.40;;;3.10;;
8048;SDS011;20935;42.660;23.342;2023-03-01T11:32:21;5.27;;;3.63;;
8048;SDS011;20935;42.660;23.342;2023-03-01T11:35:10;5.43;;;3.90;;
8048;SDS011;20935;42.660;23.342;2023-03-01T11:38:09;5.27;;;3.80;;
8048;SDS011;20935;42.660;23.342;2023-03-01T11:41:03;9.43;;;5.10;;
8048;SDS011;20935;42.660;23.342;2023-03-01T11:43:54;7.27;;;3.60;;
8048;SDS011;20935;42.660;23.342;2023-03-01T11:50:06;3.60;;;3.30;;
8048;SDS011;20935;42.660;23.342;2023-03-01T11:56:16;4.50;;;3.83;;
8048;SDS011;20935;42.660;23.342;2023-03-01T11:59:26;6.17;;;5.57;;
8048;SDS011;20935;42.660;23.342;2023-03-01T12:02:43;5.60;;;4.80;;
8048;SDS011;20935;42.660;23.342;2023-03-01T12:05:54;5.60;;;4.43;;
8048;SDS011;20935;42.660;23.342;2023-03-01T12:08:52;10.87;;;4.70;;
8048;SDS011;20935;42.660;23.342;2023-03-01T12:11:50;5.07;;;4.37;;
8048;SDS011;20935;42.660;23.342;2023-03-01T12:14:55;4.33;;;3.93;;
8048;SDS011;20935;42.660;23.342;2023-03-01T12:18:00;6.40;;;4.53;;
8048;SDS011;20935;42.660;23.342;2023-03-01T12:21:00;6.40;;;4.27;;
8048;SDS011;20935;42.660;23.342;2023-03-01T12:27:17;8.30;;;4.90;;
8048;SDS011;20935;42.660;23.342;2023-03-01T12:30:21;6.93;;;4.30;;
8048;SDS011;20935;42.660;23.342;2023-03-01T12:33:17;5.03;;;4.00;;
8048;SDS011;20935;42.660;23.342;2023-03-01T12:36:15;4.87;;;4.10;;
8048;SDS011;20935;42.660;23.342;2023-03-01T12:39:24;4.77;;;4.33;;
8048;SDS011;20935;42.660;23.342;2023-03-01T12:42:22;5.57;;;4.50;;
8048;SDS011;20935;42.660;23.342;2023-03-01T12:45:26;4.70;;;4.30;;
8048;SDS011;20935;42.660;23.342;2023-03-01T12:48:24;4.87;;;4.37;;
8048;SDS011;20935;42.660;23.342;2023-03-01T12:51:26;4.37;;;3.97;;
8048;SDS011;20935;42.660;23.342;2023-03-01T12:54:16;4.80;;;4.40;;
8048;SDS011;20935;42.660;23.342;2023-03-01T12:57:09;6.23;;;4.77;;
8048;SDS011;20935;42.660;23.342;2023-03-01T13:00:06;4.87;;;4.37;;
8048;SDS011;20935;42.660;23.342;2023-03-01T13:03:17;5.57;;;5.07;;
8048;SDS011;20935;42.660;23.342;2023-03-01T13:06:11;5.37;;;4.80;;
8048;SDS011;20935;42.660;23.342;2023-03-01T13:09:05;6.33;;;4.73;;
8048;SDS011;20935;42.660;23.342;2023-03-01T13:11:58;4.70;;;4.27;;
8048;SDS011;20935;42.660;23.342;2023-03-01T13:14:44;4.90;;;4.40;;
8048;SDS011;20935;42.660;23.342;2023-03-01T13:17:33;5.13;;;4.60;;
8048;SDS011;20935;42.660;23.342;2023-03-01T13:20:30;5.17;;;4.03;;
8048;SDS011;20935;42.660;23.342;2023-03-01T13:23:25;4.83;;;4.33;;
8048;SDS011;20935;42.660;23.342;2023-03-01T13:26:14;6.63;;;4.40;;
8048;SDS011;20935;42.660;23.342;2023-03-01T13:29:00;5.00;;;4.50;;
8048;SDS011;20935;42.660;23.342;2023-03-01T13:31:56;6.70;;;4.23;;
8048;SDS011;20935;42.660;23.342;2023-03-01T13:34:45;4.07;;;3.67;;
8048;SDS011;20935;42.660;23.342;2023-03-01T13:37:33;5.27;;;4.77;;
8048;SDS011;20935;42.660;23.342;2023-03-01T13:43:44;5.83;;;5.23;;
8048;SDS011;20935;42.660;23.342;2023-03-01T13:46:31;6.13;;;4.80;;
8048;SDS011;20935;42.660;23.342;2023-03-01T13:49:18;4.67;;;4.27;;
8048;SDS011;20935;42.660;23.342;2023-03-01T13:52:14;4.90;;;4.50;;
8048;SDS011;20935;42.660;23.342;2023-03-01T13:55:17;6.20;;;5.13;;
8048;SDS011;20935;42.660;23.342;2023-03-01T13:58:13;6.37;;;5.10;;
8048;SDS011;20935;42.660;23.342;2023-03-01T14:01:04;4.90;;;4.50;;
8048;SDS011;20935;42.660;23.342;2023-03-01T14:04:17;4.90;;;4.40;;
8048;SDS011;20935;42.660;23.342;2023-03-01T14:07:09;6.80;;;4.30;;
8048;SDS011;20935;42.660;23.342;2023-03-01T14:09:57;7.10;;;4.53;;
8048;SDS011;20935;42.660;23.342;2023-03-01T14:12:46;7.27;;;5.37;;
8048;SDS011;20935;42.660;23.342;2023-03-01T14:15:37;6.77;;;4.47;;
8048;SDS011;20935;42.660;23.342;2023-03-01T14:18:28;4.30;;;3.90;;
8048;SDS011;20935;42.660;23.342;2023-03-01T14:21:20;5.03;;;4.20;;
8048;SDS011;20935;42.660;23.342;2023-03-01T14:24:15;4.63;;;4.20;;
8048;SDS011;20935;42.660;23.342;2023-03-01T14:27:04;5.10;;;4.60;;
8048;SDS011;20935;42.660;23.342;2023-03-01T14:29:54;4.87;;;4.13;;
8048;SDS011;20935;42.660;23.342;2023-03-01T14:32:42;4.83;;;4.33;;
8048;SDS011;20935;42.660;23.342;2023-03-01T14:35:37;6.20;;;3.73;;
8048;SDS011;20935;42.660;23.342;2023-03-01T14:38:28;6.17;;;3.83;;
8048;SDS011;20935;42.660;23.342;2023-03-01T14:41:16;4.67;;;3.87;;
8048;SDS011;20935;42.660;23.342;2023-03-01T14:44:06;5.43;;;3.83;;
8048;SDS011;20935;42.660;23.342;2023-03-01T14:46:57;4.60;;;3.37;;
8048;SDS011;20935;42.660;23.342;2023-03-01T14:49:45;5.60;;;3.47;;
8048;SDS011;20935;42.660;23.342;2023-03-01T14:52:34;4.20;;;3.10;;
8048;SDS011;20935;42.660;23.342;2023-03-01T14:55:24;4.73;;;3.47;;
8048;SDS011;20935;42.660;23.342;2023-03-01T14:58:13;3.97;;;3.53;;
8048;SDS011;20935;42.660;23.342;2023-03-01T15:01:02;4.20;;;3.13;;
8048;SDS011;20935;42.660;23.342;2023-03-01T15:03:49;3.47;;;3.17;;
8048;SDS011;20935;42.660;23.342;2023-03-01T15:06:38;3.67;;;3.10;;
8048;SDS011;20935;42.660;23.342;2023-03-01T15:09:27;5.47;;;3.17;;
8048;SDS011;20935;42.660;23.342;2023-03-01T15:12:35;5.47;;;2.93;;
8048;SDS011;20935;42.660;23.342;2023-03-01T15:15:33;4.20;;;3.40;;
8048;SDS011;20935;42.660;23.342;2023-03-01T15:18:22;4.93;;;3.47;;
8048;SDS011;20935;42.660;23.342;2023-03-01T15:21:17;5.70;;;4.27;;
8048;SDS011;20935;42.660;23.342;2023-03-01T15:24:07;4.77;;;3.80;;
8048;SDS011;20935;42.660;23.342;2023-03-01T15:27:04;4.33;;;3.93;;
8048;SDS011;20935;42.660;23.342;2023-03-01T15:29:50;6.57;;;5.27;;
8048;SDS011;20935;42.660;23.342;2023-03-01T15:32:38;4.80;;;4.13;;
8048;SDS011;20935;42.660;23.342;2023-03-01T15:35:37;8.13;;;5.20;;
8048;SDS011;20935;42.660;23.342;2023-03-01T15:38:26;6.10;;;4.23;;
8048;SDS011;20935;42.660;23.342;2023-03-01T15:41:22;6.97;;;4.83;;
8048;SDS011;20935;42.660;23.342;2023-03-01T15:44:16;4.87;;;4.37;;
8048;SDS011;20935;42.660;23.342;2023-03-01T15:47:03;5.43;;;4.33;;
8048;SDS011;20935;42.660;23.342;2023-03-01T15:50:11;5.83;;;5.23;;
8048;SDS011;20935;42.660;23.342;2023-03-01T15:53:05;4.93;;;4.47;;
8048;SDS011;20935;42.660;23.342;2023-03-01T15:55:54;5.07;;;4.33;;
8048;SDS011;20935;42.660;23.342;2023-03-01T15:58:40;5.13;;;4.40;;
8048;SDS011;20935;42.660;23.342;2023-03-01T16:01:26;4.90;;;4.40;;
8048;SDS011;20935;42.660;23.342;2023-03-01T16:04:12;5.43;;;4.23;;
8048;SDS011;20935;42.660;23.342;2023-03-01T16:07:03;5.83;;;4.60;;
8048;SDS011;20935;42.660;23.342;2023-03-01T16:09:50;5.83;;;4.00;;
8048;SDS011;20935;42.660;23.342;2023-03-01T16:12:36;8.00;;;4.40;;
8048;SDS011;20935;42.660;23.342;2023-03-01T16:15:24;4.70;;;4.30;;
8048;SDS011;20935;42.660;23.342;2023-03-01T16:18:11;4.43;;;4.03;;
8048;SDS011;20935;42.660;23.342;2023-03-01T16:20:56;4.03;;;3.40;;
8048;SDS011;20935;42.660;23.342;2023-03-01T16:23:41;6.10;;;4.27;;
8048;SDS011;20935;42.660;23.342;2023-03-01T16:26:29;6.10;;;4.30;;
8048;SDS011;20935;42.660;23.342;2023-03-01T16:29:14;5.30;;;3.97;;
8048;SDS011;20935;42.660;23.342;2023-03-01T16:32:00;5.83;;;4.10;;
8048;SDS011;20935;42.660;23.342;2023-03-01T16:34:46;5.53;;;3.80;;
8048;SDS011;20935;42.660;23.342;2023-03-01T16:37:33;5.73;;;3.93;;
8048;SDS011;20935;42.660;23.342;2023-03-01T16:40:23;4.30;;;3.87;;
8048;SDS011;20935;42.660;23.342;2023-03-01T16:43:12;5.47;;;4.37;;
8048;SDS011;20935;42.660;23.342;2023-03-01T16:45:58;5.57;;;4.43;;
8048;SDS011;20935;42.660;23.342;2023-03-01T16:48:43;5.33;;;4.10;;
8048;SDS011;20935;42.660;23.342;2023-03-01T16:51:29;3.93;;;3.60;;
8048;SDS011;20935;42.660;23.342;2023-03-01T16:54:16;6.87;;;4.70;;
8048;SDS011;20935;42.660;23.342;2023-03-01T16:57:02;9.83;;;4.50;;
8048;SDS011;20935;42.660;23.342;2023-03-01T16:59:52;4.63;;;3.37;;
8048;SDS011;20935;42.660;23.342;2023-03-01T17:02:38;6.00;;;3.60;;
8048;SDS011;20935;42.660;23.342;2023-03-01T17:05:24;5.30;;;3.30;;
8048;SDS011;20935;42.660;23.342;2023-03-01T17:08:09;5.63;;;3.83;;
8048;SDS011;20935;42.660;23.342;2023-03-01T17:10:55;8.57;;;3.27;;
8048;SDS011;20935;42.660;23.342;2023-03-01T17:13:46;4.23;;;3.73;;
8048;SDS011;20935;42.660;23.342;2023-03-01T17:16:33;4.43;;;4.03;;